Bayou Metro, Arkansas
Current Conditions -  °F | °C
As of 11:58 AM on Thursday 30 Oct 2014 (Local Time) from KLRF Reporting Station
Clear Clear  
Wind Chill: 66°   Ceiling: Unl
Heat Index: 66°   Visibility: 10mi
Dew Point: 45°   Wind: 5mph
Humidity: 48%   Direction: NA
Pressure: 30.14"   Gusts: NA
Location:  34.7557°N, 91.9476°W
Report Text: KLRF 301658Z AUTO VRB04KT 10SM CLR 19/07 A3014 RMK AO2 SLP209 T01870074
Loading
Personal Weather Stations






























Interactive Weather Map
Tropical Storm Tracking
New forecast layout! Learn more

10-Day Weather Forecast

Advertisements
Track Severe Weather on mobile